Aérodrome :
LOGIN :

S'inscrire | Disclaimer

   EN    FR    IT 

 










Légende :    VFR   VFR Marginal   IFR   IFR Intensif   IFR Très Intensif
Visi : 
Plafond : 
>= 8 km
>= 3000ft
5 à 8 km
1000 à 3000 ft
1500m à 5 km
500 à 1000 ft
800 à 1500m
200 à 500 ft
< 800m
< 200 ft
Symboles :   Orages  Brouillard  Fortes neiges  Fortes précipitations  Vent > 20 kt
SIGMETs :   Divers  Orages  Givrage  Turbulence  Onde Orograph.  Cendres Volcan.







- Altitude de l'aérodrome : 433 ft
- Code IATA : CCF
- Voir les cartes d'approche


LFMK - Carcassonne

DERNIER METAR :
  • 202300Z AUTO 25008KT 220V280 CAVOK 17/16 Q1015

METARs EXPIRÉS :
  • 202230Z AUTO 24006KT 220V280 8000 NSC 17/17 Q1016
  • 202200Z AUTO 30004KT 250V340 9999 FEW040 OVC140 17/17 Q1016
  • 202130Z AUTO VRB03KT 9999 FEW025/// BKN040/// BKN048/// ///CB 18/17 Q1017
  • 202100Z AUTO VRB03KT 5000 -RA BR FEW021/// BKN041/// BKN050/// ///CB 18/17 Q1017
  • 202030Z AUTO VRB03KT 4500 RA BR FEW022/// BKN041/// BKN076/// ///CB 18/17 Q1016
  • 202000Z AUTO 25005KT 220V290 6000 RA FEW034/// SCT045/// OVC110/// ///CB 18/16 Q1016

TAF TAF LFMK
Valide du 20 à 15h jusqu'au 21 à 15h UTC


201400Z 2015/2115 27010KT 9999 NSC
TEMPO 2018/2101 TSRA SCT030 BKN070CB
TEMPO 2109/2115 TSRA SCT030 BKN070CB
Pas de NOTAMs connus pour ce terrain.
1 SIGMET publié pour la FIR Bordeaux (LFBB) :
 
Orages noyés dans la masse
LFBB SIGMET 6 VALID 202300/210300 LFPW
LFBB BORDEAUX FIR/UIR EMBD TS FCST WI N4230 E00045 - N4245 W00045 - N4300 W00030 - N4245 E00100 - N4230 E00045 TOP FL310 MOV NE 10KT WKN=



MET'MAP, la Météo Aéronautique d'un coup d'oeil ! - Copyright ORBIFLY Décembre 2007 - Disclaimer

ORBIFLY MET'MAP TEAM :

Programmation & Développement : Alexandra Zaïnal
Conception & Développement : Baudouin d'Aumeries
Co-Programmation & Développement : Marc-Olivier Méhu
Soutien technique & logistique : Manuel Goepfert

Contact : metmap@orbifly.com




SOURCES & CREDITS :

   NOAA